createdAt,value
2018-03-04T00:00:19.092Z,-0.80
2018-03-04T00:00:50.742Z,-0.80
2018-03-04T00:01:22.387Z,-0.80
2018-03-04T00:01:54.037Z,-0.80
2018-03-04T00:02:25.716Z,-0.80
2018-03-04T00:02:57.357Z,-0.80
2018-03-04T00:03:29.008Z,-0.80
2018-03-04T00:04:00.658Z,-0.90
2018-03-04T00:04:32.290Z,-0.80
2018-03-04T00:05:03.951Z,-0.80
2018-03-04T00:05:35.581Z,-0.80
2018-03-04T00:06:07.229Z,-0.90
2018-03-04T00:06:38.865Z,-0.80
2018-03-04T00:07:10.494Z,-0.80
2018-03-04T00:07:42.119Z,-0.80
2018-03-04T00:08:13.757Z,-0.80
2018-03-04T00:08:45.426Z,-0.90
2018-03-04T00:09:17.066Z,-0.90
2018-03-04T00:09:48.673Z,-0.90
2018-03-04T00:10:20.311Z,-0.80
2018-03-04T00:10:51.948Z,-0.90
2018-03-04T00:11:23.580Z,-0.90
2018-03-04T00:11:55.211Z,-0.90
2018-03-04T00:12:26.851Z,-0.90
2018-03-04T00:12:58.471Z,-0.90
2018-03-04T00:13:30.115Z,-0.80
2018-03-04T00:14:01.743Z,-0.90
2018-03-04T00:14:33.383Z,-0.90
2018-03-04T00:15:05.029Z,-0.90
2018-03-04T00:15:36.636Z,-0.80
2018-03-04T00:16:08.281Z,-0.80
2018-03-04T00:16:39.921Z,-0.90
2018-03-04T00:17:11.559Z,-0.90
2018-03-04T00:17:43.179Z,-0.90
2018-03-04T00:18:14.807Z,-0.90
2018-03-04T00:18:46.429Z,-0.90
2018-03-04T00:19:18.058Z,-0.80
2018-03-04T00:19:49.678Z,-0.90
2018-03-04T00:20:21.296Z,-0.90
2018-03-04T00:20:52.928Z,-0.90
2018-03-04T00:21:24.554Z,-0.80
2018-03-04T00:21:56.174Z,-0.90
2018-03-04T00:22:44.779Z,-0.80
2018-03-04T00:23:16.411Z,-0.80
2018-03-04T00:23:48.056Z,-0.80
2018-03-04T00:24:19.699Z,-0.80
2018-03-04T00:24:51.323Z,-0.80
2018-03-04T00:25:22.942Z,-0.80
2018-03-04T00:25:54.572Z,-0.90
2018-03-04T00:26:26.207Z,-0.80
2018-03-04T00:26:57.865Z,-0.90
2018-03-04T00:27:29.492Z,-0.80
2018-03-04T00:28:01.132Z,-0.80
2018-03-04T00:28:32.753Z,-0.80
2018-03-04T00:29:04.413Z,-0.80
2018-03-04T00:29:36.053Z,-0.70
2018-03-04T00:30:07.681Z,-0.80
2018-03-04T00:30:39.321Z,-0.70
2018-03-04T00:31:11.087Z,-0.70
2018-03-04T00:31:42.715Z,-0.80
2018-03-04T00:32:14.333Z,-0.80
2018-03-04T00:32:45.970Z,-0.60
2018-03-04T00:33:17.619Z,-0.70
2018-03-04T00:33:49.238Z,-0.70
2018-03-04T00:34:20.839Z,-0.70
2018-03-04T00:34:52.459Z,-0.70
2018-03-04T00:35:24.089Z,-0.70
2018-03-04T00:35:55.721Z,-0.70
2018-03-04T00:36:27.355Z,-0.60
2018-03-04T00:36:58.993Z,-0.70
2018-03-04T00:37:30.612Z,-0.60
2018-03-04T00:38:02.246Z,-0.60
2018-03-04T00:38:33.882Z,-0.60
2018-03-04T00:39:05.517Z,-0.60
2018-03-04T00:39:37.131Z,-0.60
2018-03-04T00:40:08.774Z,-0.70
2018-03-04T00:40:40.414Z,-0.70
2018-03-04T00:41:12.050Z,-0.60
2018-03-04T00:41:43.675Z,-0.60
2018-03-04T00:42:15.323Z,-0.50
2018-03-04T00:42:46.977Z,-0.50
2018-03-04T00:43:18.593Z,-0.50
2018-03-04T00:43:50.241Z,-0.50
2018-03-04T00:44:21.859Z,-0.50
2018-03-04T00:44:53.493Z,-0.50
2018-03-04T00:45:25.132Z,-0.50
2018-03-04T00:45:56.779Z,-0.50
2018-03-04T00:46:28.395Z,-0.50
2018-03-04T00:47:00.014Z,-0.50
2018-03-04T00:47:31.691Z,-0.60
2018-03-04T00:48:03.300Z,-0.50
2018-03-04T00:48:34.940Z,-0.50
2018-03-04T00:49:06.589Z,-0.50
2018-03-04T00:49:38.201Z,-0.50
2018-03-04T00:50:09.829Z,-0.40
2018-03-04T00:50:41.463Z,-0.40
2018-03-04T00:51:13.085Z,-0.50
2018-03-04T00:51:44.740Z,-0.50
2018-03-04T00:52:16.380Z,-0.40
2018-03-04T00:52:48.009Z,-0.50
2018-03-04T00:53:19.633Z,-0.50
2018-03-04T00:53:51.253Z,-0.50
2018-03-04T00:54:22.881Z,-0.40
2018-03-04T00:54:54.505Z,-0.50
2018-03-04T00:55:26.126Z,-0.40
2018-03-04T00:55:57.751Z,-0.40
2018-03-04T00:56:29.395Z,-0.40
2018-03-04T00:57:01.052Z,-0.40
2018-03-04T00:57:32.689Z,-0.40
2018-03-04T00:58:04.331Z,-0.30
2018-03-04T00:58:35.994Z,-0.30
2018-03-04T00:59:07.612Z,-0.30
2018-03-04T00:59:39.249Z,-0.30
2018-03-04T01:00:10.860Z,-0.30
2018-03-04T01:00:42.513Z,-0.30
2018-03-04T01:01:14.197Z,-0.40
2018-03-04T01:01:45.821Z,-0.30
2018-03-04T01:02:17.464Z,-0.40
2018-03-04T01:02:49.129Z,-0.30
2018-03-04T01:03:20.749Z,-0.30
2018-03-04T01:03:52.401Z,-0.30
2018-03-04T01:04:24.044Z,-0.30
2018-03-04T01:04:55.671Z,-0.30
2018-03-04T01:05:27.285Z,-0.20
2018-03-04T01:05:58.909Z,-0.20
2018-03-04T01:06:30.575Z,-0.20
2018-03-04T01:07:02.264Z,-0.20
2018-03-04T01:07:33.919Z,-0.20
2018-03-04T01:08:05.553Z,-0.20
2018-03-04T01:08:37.213Z,-0.20
2018-03-04T01:09:08.851Z,-0.10
2018-03-04T01:09:40.477Z,-0.20
2018-03-04T01:10:12.147Z,-0.10
2018-03-04T01:10:43.878Z,-0.20
2018-03-04T01:11:15.523Z,-0.30
2018-03-04T01:11:47.150Z,-0.20
2018-03-04T01:12:18.806Z,-0.30
2018-03-04T01:12:50.485Z,-0.20
2018-03-04T01:13:22.151Z,-0.20
2018-03-04T01:13:53.776Z,-0.20
2018-03-04T01:14:25.403Z,-0.20
2018-03-04T01:14:57.066Z,-0.20
2018-03-04T01:15:28.692Z,-0.20
2018-03-04T01:16:00.328Z,-0.20
2018-03-04T01:16:31.962Z,-0.20
2018-03-04T01:17:03.643Z,-0.20
2018-03-04T01:17:35.287Z,-0.20
2018-03-04T01:18:06.923Z,-0.20
2018-03-04T01:18:38.546Z,-0.20
2018-03-04T01:19:10.195Z,-0.20
2018-03-04T01:19:41.821Z,-0.30
2018-03-04T01:20:13.451Z,-0.20
2018-03-04T01:20:45.202Z,-0.20
2018-03-04T01:21:16.814Z,-0.20
2018-03-04T01:21:48.829Z,-0.20
2018-03-04T01:22:20.489Z,-0.20
2018-03-04T01:22:52.197Z,-0.20
2018-03-04T01:23:23.835Z,-0.20
2018-03-04T01:23:55.468Z,-0.20
2018-03-04T01:24:27.095Z,-0.20
2018-03-04T01:24:58.725Z,-0.20
2018-03-04T01:25:30.349Z,-0.20
2018-03-04T01:26:02.011Z,-0.20
2018-03-04T01:26:33.645Z,-0.20
2018-03-04T01:27:05.297Z,-0.20
2018-03-04T01:27:36.927Z,-0.10
2018-03-04T01:28:08.589Z,-0.20
2018-03-04T01:28:40.269Z,-0.10
2018-03-04T01:29:11.903Z,-0.10
2018-03-04T01:29:43.509Z,-0.10
2018-03-04T01:30:15.136Z,0.00
2018-03-04T01:30:46.773Z,-0.10
2018-03-04T01:31:18.525Z,-0.10
2018-03-04T01:31:50.149Z,-0.10
2018-03-04T01:32:21.785Z,-0.10
2018-03-04T01:32:53.411Z,-0.10
2018-03-04T01:33:25.040Z,-0.10
2018-03-04T01:33:56.657Z,0.00
2018-03-04T01:34:28.271Z,-0.10
2018-03-04T01:34:59.899Z,-0.10
2018-03-04T01:35:31.515Z,0.00
2018-03-04T01:36:03.145Z,-0.20
2018-03-04T01:36:34.801Z,-0.10
2018-03-04T01:37:06.424Z,-0.10
2018-03-04T01:37:38.062Z,-0.10
2018-03-04T01:38:09.685Z,0.00
2018-03-04T01:38:41.321Z,-0.10
2018-03-04T01:39:12.954Z,-0.10
2018-03-04T01:39:44.569Z,-0.10
2018-03-04T01:40:16.222Z,-0.10
2018-03-04T01:40:47.838Z,-0.10
2018-03-04T01:41:19.457Z,-0.10
2018-03-04T01:41:51.093Z,-0.10
2018-03-04T01:42:22.755Z,-0.10
2018-03-04T01:42:54.413Z,-0.10
2018-03-04T01:43:26.081Z,-0.10
2018-03-04T01:43:57.725Z,-0.10
2018-03-04T01:44:29.380Z,-0.10
2018-03-04T01:45:01.020Z,0.00
2018-03-04T01:45:32.633Z,-0.10
2018-03-04T01:46:04.271Z,-0.10
2018-03-04T01:46:35.945Z,-0.10
2018-03-04T01:47:07.573Z,-0.10
2018-03-04T01:47:39.210Z,-0.20
2018-03-04T01:48:10.849Z,-0.20
2018-03-04T01:48:42.479Z,-0.20
2018-03-04T01:49:14.106Z,-0.10
2018-03-04T01:49:45.741Z,-0.20
2018-03-04T01:50:17.371Z,-0.20
2018-03-04T01:50:49.019Z,-0.20
2018-03-04T01:51:20.687Z,-0.20
2018-03-04T01:51:52.387Z,-0.10
2018-03-04T01:52:24.030Z,-0.20
2018-03-04T01:52:55.659Z,-0.10
2018-03-04T01:53:27.268Z,-0.20
2018-03-04T01:53:58.900Z,-0.10
2018-03-04T01:54:30.534Z,-0.20
2018-03-04T01:55:02.161Z,-0.20
2018-03-04T01:55:33.792Z,-0.10
2018-03-04T01:56:05.426Z,-0.10
2018-03-04T01:56:37.141Z,-0.10
2018-03-04T01:57:08.781Z,-0.20
2018-03-04T01:57:40.395Z,-0.20
2018-03-04T01:58:12.044Z,-0.30
2018-03-04T01:58:43.677Z,-0.30
2018-03-04T02:01:56.054Z,-0.20
2018-03-04T02:02:27.727Z,-0.10
2018-03-04T02:02:59.375Z,-0.20
2018-03-04T02:03:31.026Z,-0.10
2018-03-04T02:04:02.687Z,-0.20
2018-03-04T02:04:34.328Z,-0.10
2018-03-04T02:05:05.987Z,-0.10
2018-03-04T02:05:37.636Z,-0.10
2018-03-04T02:06:09.298Z,-0.10
2018-03-04T02:06:40.930Z,-0.10
2018-03-04T02:07:12.581Z,0.00
2018-03-04T02:07:44.223Z,-0.10
2018-03-04T02:08:15.884Z,-0.10
2018-03-04T02:08:47.543Z,-0.10
2018-03-04T02:09:19.232Z,-0.10
2018-03-04T02:09:50.881Z,-0.10
2018-03-04T02:10:22.525Z,0.00
2018-03-04T02:10:54.143Z,-0.10
2018-03-04T02:11:25.781Z,-0.10
2018-03-04T02:11:57.389Z,-0.10
2018-03-04T02:12:29.013Z,-0.10
2018-03-04T02:13:00.651Z,-0.10
2018-03-04T02:13:32.315Z,-0.10
2018-03-04T02:14:03.949Z,-0.10
2018-03-04T02:14:35.581Z,-0.10
2018-03-04T02:15:07.213Z,-0.10
2018-03-04T02:15:38.837Z,-0.10
2018-03-04T02:16:10.506Z,-0.20
2018-03-04T02:16:42.144Z,-0.10
2018-03-04T02:17:13.767Z,-0.10
2018-03-04T02:17:45.401Z,-0.10
2018-03-04T02:18:17.060Z,-0.10
2018-03-04T02:18:48.705Z,-0.20
2018-03-04T02:19:20.317Z,-0.20
2018-03-04T02:19:51.960Z,-0.20
2018-03-04T02:20:23.571Z,-0.10
2018-03-04T02:20:55.215Z,-0.10
2018-03-04T02:21:26.850Z,-0.10
2018-03-04T02:21:58.480Z,-0.10
2018-03-04T02:22:30.126Z,-0.20
2018-03-04T02:23:01.795Z,-0.10
2018-03-04T02:23:33.431Z,-0.20
2018-03-04T02:24:05.071Z,-0.10
2018-03-04T02:24:36.708Z,-0.10
2018-03-04T02:25:08.355Z,-0.10
2018-03-04T02:25:39.975Z,-0.10
2018-03-04T02:26:11.631Z,-0.10
2018-03-04T02:26:43.269Z,-0.20
2018-03-04T02:27:14.899Z,-0.10
2018-03-04T02:27:46.539Z,-0.10
2018-03-04T02:28:18.209Z,-0.10
2018-03-04T02:28:49.839Z,-0.10
2018-03-04T02:29:21.471Z,-0.10
2018-03-04T02:29:53.091Z,0.00
2018-03-04T02:30:24.710Z,-0.10
2018-03-04T02:30:56.346Z,0.00
2018-03-04T02:31:27.978Z,-0.10
2018-03-04T02:31:59.589Z,0.00
2018-03-04T02:32:31.229Z,0.00
2018-03-04T02:33:02.851Z,-0.10
2018-03-04T02:33:34.473Z,0.00
2018-03-04T02:34:06.123Z,-0.10
2018-03-04T02:34:37.786Z,-0.10
2018-03-04T02:35:09.441Z,-0.10
2018-03-04T02:35:41.077Z,0.00
2018-03-04T02:36:12.712Z,0.00
2018-03-04T02:36:44.346Z,0.00
2018-03-04T02:37:15.981Z,-0.10
2018-03-04T02:37:47.604Z,0.00
2018-03-04T02:38:19.250Z,-0.10
2018-03-04T02:38:50.873Z,-0.10
2018-03-04T02:39:22.482Z,-0.10
2018-03-04T02:39:54.136Z,0.00
2018-03-04T02:40:25.770Z,0.00
2018-03-04T02:40:57.405Z,0.00
2018-03-04T02:41:29.039Z,0.00
2018-03-04T02:42:00.681Z,0.00
2018-03-04T02:42:32.323Z,0.00
2018-03-04T02:43:03.957Z,0.00
2018-03-04T02:43:35.615Z,0.00
2018-03-04T02:44:07.242Z,0.10
2018-03-04T02:44:38.885Z,0.00
2018-03-04T02:45:10.534Z,0.10
2018-03-04T02:45:42.191Z,0.10
2018-03-04T02:46:13.855Z,0.00
2018-03-04T02:46:45.510Z,0.00
2018-03-04T02:47:17.133Z,0.00
2018-03-04T02:47:48.764Z,0.00
2018-03-04T02:48:20.393Z,0.00
2018-03-04T02:48:52.005Z,0.00
2018-03-04T02:49:23.633Z,0.10
2018-03-04T02:49:55.269Z,0.10
2018-03-04T02:50:26.897Z,0.10
2018-03-04T02:50:58.540Z,0.00
2018-03-04T02:51:30.161Z,0.00
2018-03-04T02:52:01.778Z,0.00
2018-03-04T02:52:33.457Z,0.10
2018-03-04T02:53:05.071Z,0.00
2018-03-04T02:53:36.681Z,0.10
2018-03-04T02:54:08.312Z,0.10
2018-03-04T02:54:39.933Z,0.10
2018-03-04T02:55:12.001Z,0.00
2018-03-04T02:55:43.667Z,0.00
2018-03-04T02:56:15.312Z,0.00
2018-03-04T02:56:46.955Z,0.00
2018-03-04T02:57:18.579Z,0.00
2018-03-04T02:57:51.145Z,-0.10
2018-03-04T02:58:22.766Z,0.00
2018-03-04T02:58:54.406Z,0.00
2018-03-04T02:59:26.030Z,0.00
2018-03-04T02:59:57.669Z,0.00
2018-03-04T03:00:29.280Z,0.00
2018-03-04T03:01:00.935Z,0.00
2018-03-04T03:01:32.550Z,0.00
2018-03-04T03:02:04.210Z,0.00
2018-03-04T03:02:35.859Z,0.00
2018-03-04T03:03:07.506Z,-0.10
2018-03-04T03:03:39.126Z,-0.10
2018-03-04T03:04:10.839Z,-0.10
2018-03-04T03:04:42.493Z,-0.10
2018-03-04T03:05:14.117Z,-0.10
2018-03-04T03:05:45.751Z,-0.10
2018-03-04T03:06:17.417Z,-0.10
2018-03-04T03:06:49.061Z,-0.10
2018-03-04T03:07:20.697Z,-0.10
2018-03-04T03:07:52.316Z,-0.20
2018-03-04T03:08:23.947Z,-0.10
2018-03-04T03:08:55.572Z,-0.20
2018-03-04T03:09:27.175Z,-0.20
2018-03-04T03:09:58.813Z,-0.10
2018-03-04T03:10:30.446Z,-0.10
2018-03-04T03:11:02.073Z,-0.20
2018-03-04T03:11:33.716Z,-0.10
2018-03-04T03:12:05.327Z,-0.20
2018-03-04T03:12:36.938Z,-0.10
2018-03-04T03:13:08.579Z,-0.20
2018-03-04T03:13:40.206Z,-0.20
2018-03-04T03:14:11.839Z,-0.20
2018-03-04T03:14:43.449Z,-0.20
2018-03-04T03:15:15.071Z,-0.20
2018-03-04T03:15:46.698Z,-0.20
2018-03-04T03:16:18.342Z,-0.20
2018-03-04T03:16:49.989Z,-0.30
2018-03-04T03:17:21.609Z,-0.20
2018-03-04T03:17:53.237Z,-0.30
2018-03-04T03:18:24.843Z,-0.30
2018-03-04T03:18:56.495Z,-0.30
2018-03-04T03:19:28.118Z,-0.30
2018-03-04T03:19:59.737Z,-0.30
2018-03-04T03:20:31.361Z,-0.30
2018-03-04T03:21:02.990Z,-0.20
2018-03-04T03:21:34.629Z,-0.30
2018-03-04T03:22:06.263Z,-0.30
2018-03-04T03:22:37.907Z,-0.40
2018-03-04T03:23:09.559Z,-0.40
2018-03-04T03:23:41.209Z,-0.40
2018-03-04T03:24:12.833Z,-0.40
2018-03-04T03:24:44.449Z,-0.40
2018-03-04T03:25:16.081Z,-0.50
2018-03-04T03:25:47.719Z,-0.50
2018-03-04T03:26:19.363Z,-0.50
2018-03-04T03:26:50.983Z,-0.50
2018-03-04T03:27:22.629Z,-0.60
2018-03-04T03:27:54.267Z,-0.60
2018-03-04T03:28:25.903Z,-0.50
2018-03-04T03:28:57.521Z,-0.50
2018-03-04T03:29:29.138Z,-0.50
2018-03-04T03:30:00.811Z,-0.60
2018-03-04T03:30:32.425Z,-0.60
2018-03-04T03:31:07.563Z,-0.60
2018-03-04T03:31:39.220Z,-0.70
2018-03-04T03:32:10.891Z,-0.60
2018-03-04T03:32:42.519Z,-0.60
2018-03-04T03:33:14.127Z,-0.70
2018-03-04T03:33:45.749Z,-0.70
2018-03-04T03:34:17.383Z,-0.70
2018-03-04T03:34:49.020Z,-0.70
2018-03-04T03:35:20.659Z,-0.70
2018-03-04T03:35:52.292Z,-0.70
2018-03-04T03:36:23.898Z,-0.70
2018-03-04T03:36:55.516Z,-0.70
2018-03-04T03:37:27.114Z,-0.60
2018-03-04T03:37:58.749Z,-0.70
2018-03-04T03:38:30.432Z,-0.70
2018-03-04T03:39:02.082Z,-0.70
2018-03-04T03:39:33.737Z,-0.80
2018-03-04T03:40:05.368Z,-0.80
2018-03-04T03:40:37.006Z,-0.70
2018-03-04T03:41:08.640Z,-0.70
2018-03-04T03:41:40.281Z,-0.80
2018-03-04T03:42:11.912Z,-0.70
2018-03-04T03:42:43.527Z,-0.70
2018-03-04T03:43:15.145Z,-0.80
2018-03-04T03:43:46.773Z,-0.80
2018-03-04T03:44:18.403Z,-0.70
2018-03-04T03:44:50.034Z,-0.80
2018-03-04T03:45:21.659Z,-0.80
2018-03-04T03:45:53.295Z,-0.80
2018-03-04T03:46:24.925Z,-0.80
2018-03-04T03:46:56.557Z,-0.80
2018-03-04T03:47:28.183Z,-0.80
2018-03-04T03:47:59.806Z,-0.90
2018-03-04T03:48:31.427Z,-0.90
2018-03-04T03:49:03.049Z,-0.80
2018-03-04T03:49:34.743Z,-0.90
2018-03-04T03:50:06.367Z,-0.90
2018-03-04T03:50:38.031Z,-0.80
2018-03-04T03:51:09.667Z,-0.90
2018-03-04T03:51:41.301Z,-0.90
2018-03-04T03:52:12.913Z,-0.90
2018-03-04T03:52:44.535Z,-1.00
2018-03-04T03:53:16.199Z,-0.90
2018-03-04T03:53:47.836Z,-0.90
2018-03-04T03:54:19.503Z,-0.90
2018-03-04T03:54:51.117Z,-1.00
2018-03-04T03:55:22.745Z,-1.00
2018-03-04T03:55:54.377Z,-1.00
2018-03-04T03:56:26.017Z,-0.90
2018-03-04T03:56:57.626Z,-1.00
2018-03-04T03:57:29.249Z,-1.00
2018-03-04T03:58:00.885Z,-1.00
2018-03-04T03:58:32.506Z,-0.90
2018-03-04T03:59:04.173Z,-0.90
2018-03-04T03:59:35.815Z,-1.00
2018-03-04T04:00:07.420Z,-0.90
2018-03-04T04:00:39.934Z,-1.00
2018-03-04T04:01:11.556Z,-1.00
2018-03-04T04:01:43.175Z,-1.00
2018-03-04T04:02:14.786Z,-1.00
2018-03-04T04:02:46.405Z,-1.00
2018-03-04T04:03:18.017Z,-1.00
2018-03-04T04:03:49.673Z,-1.00
2018-03-04T04:04:21.304Z,-1.00
2018-03-04T04:04:52.923Z,-1.10
2018-03-04T04:05:24.546Z,-1.00
2018-03-04T04:05:56.203Z,-1.10
2018-03-04T04:06:27.834Z,-1.10
2018-03-04T04:06:59.465Z,-1.10
2018-03-04T04:07:31.073Z,-1.10
2018-03-04T04:08:02.741Z,-1.10
2018-03-04T04:08:34.392Z,-1.10
2018-03-04T04:09:06.158Z,-1.10
2018-03-04T04:09:37.824Z,-1.10
2018-03-04T04:10:09.509Z,-1.10
2018-03-04T04:10:41.144Z,-1.10
2018-03-04T04:11:12.767Z,-1.10
2018-03-04T04:11:44.410Z,-1.10
2018-03-04T04:12:16.055Z,-1.10
2018-03-04T04:12:47.694Z,-1.20
2018-03-04T04:13:19.334Z,-1.20
2018-03-04T04:13:50.965Z,-1.10
2018-03-04T04:14:22.576Z,-1.10
2018-03-04T04:14:54.245Z,-1.10
2018-03-04T04:15:25.849Z,-1.20
2018-03-04T04:15:57.484Z,-1.20
2018-03-04T04:16:29.117Z,-1.20
2018-03-04T04:17:00.746Z,-1.20
2018-03-04T04:17:32.381Z,-1.20
2018-03-04T04:18:04.018Z,-1.20
2018-03-04T04:18:35.627Z,-1.20
2018-03-04T04:19:07.281Z,-1.20
2018-03-04T04:19:38.904Z,-1.20
2018-03-04T04:20:10.551Z,-1.20
2018-03-04T04:20:42.187Z,-1.20
2018-03-04T04:21:13.827Z,-1.20
2018-03-04T04:21:45.447Z,-1.20
2018-03-04T04:22:17.071Z,-1.20
2018-03-04T04:22:48.685Z,-1.20
2018-03-04T04:23:20.354Z,-1.10
2018-03-04T04:23:52.001Z,-1.20
2018-03-04T04:24:23.611Z,-1.20
2018-03-04T04:24:55.230Z,-1.20
2018-03-04T04:25:26.853Z,-1.10
2018-03-04T04:25:58.525Z,-1.10
2018-03-04T04:26:30.177Z,-1.20
2018-03-04T04:27:01.838Z,-1.20
2018-03-04T04:27:33.461Z,-1.20
2018-03-04T04:28:05.081Z,-1.20
2018-03-04T04:28:36.719Z,-1.20
2018-03-04T04:29:08.364Z,-1.20
2018-03-04T04:29:39.989Z,-1.20
2018-03-04T04:30:11.633Z,-1.20
2018-03-04T04:30:43.264Z,-1.10
2018-03-04T04:31:14.895Z,-1.20
2018-03-04T04:31:46.555Z,-1.20
2018-03-04T04:32:18.152Z,-1.20
2018-03-04T04:32:49.787Z,-1.10
2018-03-04T04:33:21.407Z,-1.20
2018-03-04T04:33:53.013Z,-1.10
2018-03-04T04:34:24.636Z,-1.20
2018-03-04T04:34:56.261Z,-1.20
2018-03-04T04:35:27.929Z,-1.20
2018-03-04T04:35:59.556Z,-1.20
2018-03-04T04:36:31.173Z,-1.20
2018-03-04T04:37:02.805Z,-1.10
2018-03-04T04:37:34.420Z,-1.20
2018-03-04T04:38:06.053Z,-1.10
2018-03-04T04:38:37.702Z,-1.10
2018-03-04T04:39:09.320Z,-1.20
2018-03-04T04:39:41.015Z,-1.20
2018-03-04T04:40:12.611Z,-1.20
2018-03-04T04:40:44.219Z,-1.20
2018-03-04T04:41:15.881Z,-1.10
2018-03-04T04:41:47.519Z,-1.20
2018-03-04T04:42:19.145Z,-1.10
2018-03-04T04:42:50.775Z,-1.10
2018-03-04T04:43:22.412Z,-1.10
2018-03-04T04:43:54.049Z,-1.10
2018-03-04T04:44:25.702Z,-1.10
2018-03-04T04:44:57.325Z,-1.10
2018-03-04T04:45:28.942Z,-1.00
2018-03-04T04:46:00.581Z,-1.00
2018-03-04T04:46:32.223Z,-1.00
2018-03-04T04:47:03.866Z,-0.90
2018-03-04T04:47:35.480Z,-1.00
2018-03-04T04:48:07.119Z,-0.90
2018-03-04T04:48:38.725Z,-0.90
2018-03-04T04:49:10.357Z,-0.90
2018-03-04T04:49:41.986Z,-0.90
2018-03-04T04:50:13.644Z,-0.80
2018-03-04T04:50:45.252Z,-0.80
2018-03-04T04:51:16.882Z,-0.80
2018-03-04T04:51:48.525Z,-0.80
2018-03-04T04:52:20.132Z,-0.80
2018-03-04T04:52:51.740Z,-0.80
2018-03-04T04:53:23.363Z,-0.80
2018-03-04T04:53:55.026Z,-0.80
2018-03-04T04:54:26.644Z,-0.80
2018-03-04T04:54:58.281Z,-0.80
2018-03-04T04:55:29.896Z,-0.80
2018-03-04T04:56:01.510Z,-0.70
2018-03-04T04:56:33.141Z,-0.70
2018-03-04T04:57:04.775Z,-0.70
2018-03-04T04:57:36.435Z,-0.70
2018-03-04T04:58:08.049Z,-0.70
2018-03-04T04:58:39.667Z,-0.70
2018-03-04T04:59:11.320Z,-0.70
2018-03-04T04:59:42.953Z,-0.70
2018-03-04T05:00:14.561Z,-0.70
2018-03-04T05:00:46.196Z,-0.60
2018-03-04T05:01:17.815Z,-0.60
2018-03-04T05:01:49.493Z,-0.70
2018-03-04T05:02:21.144Z,-0.70
2018-03-04T05:02:52.752Z,-0.60
2018-03-04T05:03:24.415Z,-0.70
2018-03-04T05:03:56.055Z,-0.70
2018-03-04T05:04:27.700Z,-0.60
2018-03-04T05:05:00.182Z,-0.70
2018-03-04T05:05:31.792Z,-0.60
2018-03-04T05:06:03.441Z,-0.60
2018-03-04T05:06:35.075Z,-0.60
2018-03-04T05:07:06.740Z,-0.60
2018-03-04T05:07:38.386Z,-0.60
2018-03-04T05:08:10.012Z,-0.60
2018-03-04T05:08:41.629Z,-0.60
2018-03-04T05:09:13.275Z,-0.60
2018-03-04T05:09:44.901Z,-0.60
2018-03-04T05:10:16.523Z,-0.60
2018-03-04T05:10:48.152Z,-0.60
2018-03-04T05:11:19.802Z,-0.60
2018-03-04T05:11:51.441Z,-0.60
2018-03-04T05:12:23.068Z,-0.60
2018-03-04T05:12:54.721Z,-0.60
2018-03-04T05:13:26.350Z,-0.60
2018-03-04T05:13:57.986Z,-0.60
2018-03-04T05:14:29.612Z,-0.60
2018-03-04T05:15:01.261Z,-0.60
2018-03-04T05:15:32.880Z,-0.60
2018-03-04T05:16:04.508Z,-0.70
2018-03-04T05:16:36.128Z,-0.60
2018-03-04T05:17:07.772Z,-0.60
2018-03-04T05:17:39.422Z,-0.70
2018-03-04T05:18:11.045Z,-0.70
2018-03-04T05:18:42.692Z,-0.70
2018-03-04T05:19:14.397Z,-0.70
2018-03-04T05:19:46.017Z,-0.80
2018-03-04T05:20:17.651Z,-0.70
2018-03-04T05:20:49.292Z,-0.70
2018-03-04T05:21:20.926Z,-0.70
2018-03-04T05:21:52.555Z,-0.80
2018-03-04T05:22:24.164Z,-0.80
2018-03-04T05:22:55.797Z,-0.80
2018-03-04T05:23:27.414Z,-0.80
2018-03-04T05:23:59.042Z,-0.80
2018-03-04T05:24:30.721Z,-0.80
2018-03-04T05:25:02.353Z,-0.80
2018-03-04T05:25:33.979Z,-0.90
2018-03-04T05:26:05.576Z,-0.90
2018-03-04T05:26:37.234Z,-0.80
2018-03-04T05:27:08.881Z,-0.90
2018-03-04T05:27:40.500Z,-0.80
2018-03-04T05:28:12.124Z,-0.90
2018-03-04T05:28:43.741Z,-0.90
2018-03-04T05:29:15.377Z,-0.80
2018-03-04T05:29:47.002Z,-0.80
2018-03-04T05:30:18.651Z,-0.80
2018-03-04T05:30:50.256Z,-0.90
2018-03-04T05:31:21.876Z,-0.90
2018-03-04T05:31:53.522Z,-0.90
2018-03-04T05:32:25.142Z,-0.90
2018-03-04T05:32:56.758Z,-0.90
2018-03-04T05:33:28.402Z,-0.90
2018-03-04T05:34:00.053Z,-0.90
2018-03-04T05:34:31.697Z,-0.90
2018-03-04T05:35:03.349Z,-1.00
2018-03-04T05:35:34.973Z,-0.90
2018-03-04T05:36:06.585Z,-0.90
2018-03-04T05:36:38.219Z,-1.00
2018-03-04T05:37:09.838Z,-1.00
2018-03-04T05:37:41.452Z,-1.00
2018-03-04T05:38:13.065Z,-1.00
2018-03-04T05:38:44.673Z,-1.00
2018-03-04T05:39:16.315Z,-1.00
2018-03-04T05:39:47.936Z,-1.00
2018-03-04T05:40:19.590Z,-1.10
2018-03-04T05:40:51.192Z,-1.00
2018-03-04T05:41:22.806Z,-1.00
2018-03-04T05:41:54.429Z,-1.10
2018-03-04T05:42:26.045Z,-1.10
2018-03-04T05:42:57.671Z,-1.00
2018-03-04T05:43:29.288Z,-1.00
2018-03-04T05:44:00.905Z,-1.00
2018-03-04T05:44:32.527Z,-1.10
2018-03-04T05:45:04.147Z,-1.00
2018-03-04T05:45:35.757Z,-1.00
2018-03-04T05:46:07.425Z,-1.00
2018-03-04T05:46:39.041Z,-1.10
2018-03-04T05:47:10.705Z,-1.10
2018-03-04T05:47:42.329Z,-1.00
2018-03-04T05:48:13.967Z,-1.10
2018-03-04T05:48:45.625Z,-1.10
2018-03-04T05:49:17.341Z,-1.10
2018-03-04T05:49:48.969Z,-1.10
2018-03-04T05:50:20.595Z,-1.10
2018-03-04T05:50:52.202Z,-1.20
2018-03-04T05:51:23.827Z,-1.10
2018-03-04T05:51:55.470Z,-1.20
2018-03-04T05:52:27.131Z,-1.10
2018-03-04T05:52:58.769Z,-1.10
2018-03-04T05:53:30.407Z,-1.10
2018-03-04T05:54:02.029Z,-1.10
2018-03-04T05:54:33.663Z,-1.10
2018-03-04T05:55:05.287Z,-1.10
2018-03-04T05:55:36.915Z,-1.20
2018-03-04T05:56:08.552Z,-1.10
2018-03-04T05:56:40.161Z,-1.20
2018-03-04T05:57:11.780Z,-1.10
2018-03-04T05:57:43.443Z,-1.10
2018-03-04T05:58:15.063Z,-1.10
2018-03-04T05:58:46.690Z,-1.20
2018-03-04T05:59:18.317Z,-1.10
2018-03-04T05:59:49.943Z,-1.10
2018-03-04T06:00:21.606Z,-1.20
2018-03-04T06:00:53.235Z,-1.20
2018-03-04T06:01:24.871Z,-1.10
2018-03-04T06:01:56.509Z,-1.20
2018-03-04T06:02:28.157Z,-1.20
2018-03-04T06:02:59.781Z,-1.20
2018-03-04T06:03:31.402Z,-1.20
2018-03-04T06:04:03.004Z,-1.20
2018-03-04T06:04:34.663Z,-1.10
2018-03-04T06:05:06.276Z,-1.20
2018-03-04T06:05:37.926Z,-1.20
2018-03-04T06:06:10.401Z,-1.20
2018-03-04T06:06:42.042Z,-1.20
2018-03-04T06:07:13.653Z,-1.20
2018-03-04T06:07:45.292Z,-1.10
2018-03-04T06:08:16.930Z,-1.20
2018-03-04T06:08:48.581Z,-1.20
2018-03-04T06:09:20.217Z,-1.20
2018-03-04T06:09:51.875Z,-1.10
2018-03-04T06:10:23.515Z,-1.10
2018-03-04T06:10:55.161Z,-1.10
2018-03-04T06:11:26.787Z,-1.20
2018-03-04T06:11:58.414Z,-1.20
2018-03-04T06:12:30.037Z,-1.20
2018-03-04T06:13:01.652Z,-1.10
2018-03-04T06:13:33.283Z,-1.20
2018-03-04T06:14:04.920Z,-1.20
2018-03-04T06:14:36.581Z,-1.10
2018-03-04T06:15:08.209Z,-1.10
2018-03-04T06:15:39.848Z,-1.10
2018-03-04T06:16:11.476Z,-1.10
2018-03-04T06:16:43.074Z,-1.00
2018-03-04T06:17:14.703Z,-1.10
2018-03-04T06:17:46.319Z,-1.00
2018-03-04T06:18:17.973Z,-1.10
2018-03-04T06:18:49.588Z,-1.00
2018-03-04T06:19:21.213Z,-1.00
2018-03-04T06:19:52.832Z,-1.00
2018-03-04T06:20:24.454Z,-1.00
2018-03-04T06:20:56.088Z,-1.00
2018-03-04T06:21:27.740Z,-1.00
2018-03-04T06:21:59.373Z,-1.00
2018-03-04T06:22:31.001Z,-1.00
2018-03-04T06:23:02.614Z,-1.00
2018-03-04T06:23:34.250Z,-1.00
2018-03-04T06:24:05.885Z,-0.90
2018-03-04T06:24:37.539Z,-0.90
2018-03-04T06:25:09.177Z,-1.00
2018-03-04T06:25:40.796Z,-1.00
2018-03-04T06:26:12.444Z,-0.90
2018-03-04T06:26:44.103Z,-0.90
2018-03-04T06:27:15.719Z,-0.90
2018-03-04T06:27:47.363Z,-0.90
2018-03-04T06:28:19.003Z,-0.90
2018-03-04T06:28:50.640Z,-1.00
2018-03-04T06:29:22.270Z,-0.90
2018-03-04T06:29:53.910Z,-0.90
2018-03-04T06:30:25.544Z,-0.90
2018-03-04T06:30:57.174Z,-0.90
2018-03-04T06:31:28.808Z,-0.90
2018-03-04T06:32:00.453Z,-0.90
2018-03-04T06:32:32.099Z,-0.90
2018-03-04T06:33:03.726Z,-0.90
2018-03-04T06:35:10.666Z,-0.90
2018-03-04T06:35:42.304Z,-0.90
2018-03-04T06:36:13.945Z,-0.90
2018-03-04T06:36:45.595Z,-0.90
2018-03-04T06:37:17.224Z,-0.90
2018-03-04T06:37:48.853Z,-0.90
2018-03-04T06:38:20.486Z,-0.90
2018-03-04T06:38:52.146Z,-0.90
2018-03-04T06:39:23.766Z,-0.90
2018-03-04T06:39:55.392Z,-0.80
2018-03-04T06:40:26.991Z,-0.90
2018-03-04T06:40:58.626Z,-0.90
2018-03-04T06:41:30.237Z,-0.90
2018-03-04T06:42:01.869Z,-0.90
2018-03-04T06:42:33.540Z,-0.80
2018-03-04T06:43:05.176Z,-0.90
2018-03-04T06:43:36.788Z,-0.80
2018-03-04T06:44:08.433Z,-0.80
2018-03-04T06:44:40.095Z,-0.80
2018-03-04T06:45:11.726Z,-0.70
2018-03-04T06:45:43.338Z,-0.70
2018-03-04T06:46:14.976Z,-0.70
2018-03-04T06:46:46.634Z,-0.60
2018-03-04T06:47:18.271Z,-0.70
2018-03-04T06:47:49.924Z,-0.60
2018-03-04T06:48:21.556Z,-0.60
2018-03-04T06:48:53.184Z,-0.50
2018-03-04T06:49:24.800Z,-0.50
2018-03-04T06:49:56.411Z,-0.50
2018-03-04T06:50:28.033Z,-0.40
2018-03-04T06:50:59.660Z,-0.40
2018-03-04T06:51:31.263Z,-0.30
2018-03-04T06:52:02.886Z,-0.40
2018-03-04T06:52:34.497Z,-0.40
2018-03-04T06:53:06.132Z,-0.30